Impacts TAF Board INFO
FOR SITUATIONAL AWARENESS. NOT TO BE USED FOR FLIGHT PLANNING PURPOSES.
IDs:

KCVG - Cincinnati Intl, KY, US

Issued at 0532 UTC 27 May 2017
Updated at 0958 UTC 27 May 2017
Potential Impact None Slight Moderate High
Time0952Z 27/10Z 27/11Z 27/12Z 27/13Z 27/14Z 27/15Z 27/16Z 27/17Z 27/18Z 27/19Z 27/20Z 27/21Z 27/22Z>>
Type OBS PRVL PRVL PRVL PRVL PRVL PRVL PRVL PRVL PRVL PRVL PRVL PRVL PRVL
VIS 10 >6 >6 >6 >6 >6 >6 >6 >6 >6 >6 >6 >6 >6
CIG 65 18 18 18 18 18 35 35 35 35 35 35 40 40
Cover BKN BKN BKN BKN BKN BKN BKN BKN BKN BKN BKN BKN BKN BKN
FltCat VFR MVFR MVFR MVFR MVFR MVFR VFR VFR VFR VFR VFR VFR VFR VFR
WX -- -- -- -- -- -- -- -- -- -- -- -- VCSH VCSH
WDir 240 210 210 210 210 210 240 240 240 240 240 240 280 280
WSpd 6 7 7 7 7 7 8 8 8 8 8 8 8 8
WGst -- -- -- -- -- -- -- -- -- -- -- -- -- --

Raw TAF
KCVG 270532Z 2706/2812 18005KT P6SM SCT060
  FM270900 21007KT P6SM BKN018
  FM271500 24008KT P6SM BKN035
  FM272100 28008KT P6SM VCSH BKN040
  FM280000 32004KT P6SM BKN080
  FM280800 16004KT P6SM VCSH OVC050


Raw METAR
KCVG 270952Z 24006KT 10SM SCT027 BKN065 21/18 A2984 RMK AO2 SLP094 T02110178
KCVG 270852Z 23004KT 10SM OVC022 22/18 A2984 RMK AO2 SLP093 T02170178 53002
KCVG 270752Z 24005KT 10SM BKN029 OVC047 22/17 A2983 RMK AO2 SLP092 T02220172
KCVG 270652Z 21006KT 10SM OVC038 22/17 A2983 RMK AO2 SLP092 BINOVC T02220172

METAR Board
Radar Display
Forecast Discussion

FOR SITUATIONAL AWARENESS. NOT TO BE USED FOR FLIGHT PLANNING PURPOSES.

Page loaded:  09:58 UTC  |   02:58 AM Pacific  |   03:58 AM Mountain  |   04:58 AM Central  |   05:58 AM Eastern

 

ADVISORIES

FORECASTS

FORECASTS

OBSERVATIONS

USER TOOLS

ABOUT US